createdAt,value
2022-10-16T00:00:50.750Z,52.85
2022-10-16T00:01:54.808Z,34.53
2022-10-16T00:02:57.814Z,45.60
2022-10-16T00:04:03.878Z,46.95
2022-10-16T00:05:07.195Z,47.65
2022-10-16T00:06:12.144Z,56.30
2022-10-16T00:07:16.043Z,106.72
2022-10-16T00:08:19.023Z,92.03
2022-10-16T00:09:23.005Z,73.03
2022-10-16T00:10:26.386Z,64.45
2022-10-16T00:11:34.430Z,45.08
2022-10-16T00:12:37.362Z,36.63
2022-10-16T00:13:44.283Z,41.42
2022-10-16T00:14:47.232Z,42.90
2022-10-16T00:15:51.153Z,42.00
2022-10-16T00:16:54.167Z,42.78
2022-10-16T00:17:58.128Z,44.30
2022-10-16T00:19:01.077Z,40.67
2022-10-16T00:20:09.067Z,41.40
2022-10-16T00:21:14.405Z,37.28
2022-10-16T00:22:18.355Z,35.85
2022-10-16T00:23:21.749Z,34.38
2022-10-16T00:24:25.786Z,34.65
2022-10-16T00:27:08.116Z,30.63
2022-10-16T00:28:30.693Z,36.25
2022-10-16T00:29:35.618Z,32.03
2022-10-16T00:30:40.894Z,32.00
2022-10-16T00:31:44.907Z,28.42
2022-10-16T00:32:47.984Z,32.20
2022-10-16T00:33:52.607Z,34.85
2022-10-16T00:34:55.916Z,32.97
2022-10-16T00:36:01.385Z,32.10
2022-10-16T00:37:04.685Z,34.70
2022-10-16T00:38:08.963Z,35.13
2022-10-16T00:39:11.894Z,33.38
2022-10-16T00:40:16.756Z,32.65
2022-10-16T00:41:19.794Z,33.08
2022-10-16T00:42:25.090Z,33.13
2022-10-16T00:43:38.194Z,30.35
2022-10-16T00:44:49.694Z,29.85
2022-10-16T00:45:52.670Z,31.10
2022-10-16T00:46:56.954Z,30.67
2022-10-16T00:47:59.937Z,31.15
2022-10-16T00:49:06.985Z,27.73
2022-10-16T00:50:12.876Z,29.33
2022-10-16T00:51:17.284Z,29.02
2022-10-16T00:52:20.916Z,29.52
2022-10-16T00:53:25.026Z,26.80
2022-10-16T00:54:29.749Z,28.88
2022-10-16T00:55:35.011Z,25.00
2022-10-16T00:56:39.557Z,27.65
2022-10-16T00:57:44.629Z,25.75
2022-10-16T00:58:47.816Z,26.58
2022-10-16T00:59:53.697Z,29.20
2022-10-16T01:00:57.361Z,27.98
2022-10-16T01:02:02.334Z,32.80
2022-10-16T01:03:25.887Z,25.85
2022-10-16T01:04:32.379Z,26.40
2022-10-16T01:05:42.022Z,25.02
2022-10-16T01:06:48.104Z,29.17
2022-10-16T01:07:57.705Z,26.05
2022-10-16T01:09:09.242Z,25.73
2022-10-16T01:10:20.234Z,26.38
2022-10-16T01:11:28.857Z,26.85
2022-10-16T01:12:39.163Z,26.60
2022-10-16T01:13:49.416Z,27.00
2022-10-16T01:14:56.018Z,32.05
2022-10-16T01:16:05.678Z,30.15
2022-10-16T01:17:12.903Z,28.73
2022-10-16T01:18:20.934Z,28.65
2022-10-16T01:19:33.763Z,29.92
2022-10-16T01:20:40.866Z,31.60
2022-10-16T01:21:45.436Z,31.55
2022-10-16T01:23:01.728Z,27.33
2022-10-16T01:24:10.366Z,28.42
2022-10-16T01:25:21.157Z,29.48
2022-10-16T01:26:37.367Z,30.33
2022-10-16T01:27:43.575Z,34.83
2022-10-16T01:28:50.922Z,34.08
2022-10-16T01:29:56.759Z,32.85
2022-10-16T01:31:00.446Z,34.92
2022-10-16T01:32:11.814Z,36.42
2022-10-16T01:33:18.636Z,33.72
2022-10-16T01:34:25.956Z,30.00
2022-10-16T01:35:31.845Z,29.00
2022-10-16T01:36:39.735Z,28.55
2022-10-16T01:37:48.117Z,26.83
2022-10-16T01:38:54.544Z,33.25
2022-10-16T01:40:00.438Z,31.30
2022-10-16T01:41:07.386Z,29.38
2022-10-16T01:42:14.608Z,30.02
2022-10-16T01:43:22.678Z,30.38
2022-10-16T01:44:27.985Z,31.63
2022-10-16T01:45:32.958Z,28.23
2022-10-16T01:46:37.906Z,28.77
2022-10-16T01:47:42.288Z,27.40
2022-10-16T01:48:45.278Z,28.23
2022-10-16T01:49:49.434Z,28.58
2022-10-16T01:50:56.859Z,28.75
2022-10-16T01:52:02.819Z,27.95
2022-10-16T01:53:06.805Z,27.80
2022-10-16T01:54:11.771Z,28.33
2022-10-16T01:55:17.977Z,28.50
2022-10-16T01:56:23.833Z,25.08
2022-10-16T01:57:29.558Z,30.58
2022-10-16T01:58:37.006Z,28.98
2022-10-16T01:59:43.626Z,27.45
2022-10-16T02:00:49.405Z,26.05
2022-10-16T02:01:56.293Z,27.55
2022-10-16T02:03:02.084Z,28.73
2022-10-16T02:04:12.037Z,29.60
2022-10-16T02:05:20.948Z,26.08
2022-10-16T02:06:24.636Z,29.73
2022-10-16T02:07:28.715Z,29.17
2022-10-16T02:08:32.478Z,31.60
2022-10-16T02:09:37.416Z,28.75
2022-10-16T02:10:41.068Z,27.05
2022-10-16T02:11:45.219Z,29.63
2022-10-16T02:12:52.343Z,32.05
2022-10-16T02:14:01.398Z,27.48
2022-10-16T02:15:04.855Z,26.50
2022-10-16T02:16:12.257Z,27.92
2022-10-16T02:17:17.869Z,33.55
2022-10-16T02:18:22.407Z,25.02
2022-10-16T02:19:26.755Z,28.77
2022-10-16T02:20:31.201Z,26.65
2022-10-16T02:21:42.236Z,28.70
2022-10-16T02:22:48.091Z,26.95
2022-10-16T02:23:56.915Z,30.52
2022-10-16T02:25:03.364Z,28.38
2022-10-16T02:26:09.878Z,28.75
2022-10-16T02:27:18.194Z,29.45
2022-10-16T02:28:26.398Z,25.90
2022-10-16T02:29:30.705Z,25.60
2022-10-16T02:30:38.565Z,25.35
2022-10-16T02:31:44.974Z,30.15
2022-10-16T02:32:50.567Z,23.60
2022-10-16T02:33:54.654Z,29.23
2022-10-16T02:35:00.562Z,29.17
2022-10-16T02:36:03.801Z,31.27
2022-10-16T02:37:07.987Z,24.63
2022-10-16T02:38:12.109Z,25.88
2022-10-16T02:39:17.085Z,28.88
2022-10-16T02:40:22.968Z,27.95
2022-10-16T02:41:29.283Z,25.80
2022-10-16T02:42:35.755Z,27.30
2022-10-16T02:43:39.795Z,24.65
2022-10-16T02:44:44.245Z,23.25
2022-10-16T02:45:48.216Z,25.67
2022-10-16T02:46:51.133Z,26.50
2022-10-16T02:47:55.226Z,27.63
2022-10-16T02:48:58.344Z,30.92
2022-10-16T02:50:02.496Z,24.33
2022-10-16T02:51:06.061Z,21.10
2022-10-16T02:52:10.614Z,22.52
2022-10-16T02:53:13.594Z,21.23
2022-10-16T02:54:17.534Z,25.90
2022-10-16T02:55:20.606Z,34.08
2022-10-16T02:56:25.115Z,24.30
2022-10-16T02:57:28.670Z,26.58
2022-10-16T02:58:32.927Z,22.27
2022-10-16T02:59:37.795Z,22.33
2022-10-16T03:00:43.309Z,31.70
2022-10-16T03:01:46.314Z,23.55
2022-10-16T03:02:50.362Z,24.35
2022-10-16T03:03:58.451Z,23.52
2022-10-16T03:05:02.446Z,21.58
2022-10-16T03:06:07.376Z,21.42
2022-10-16T03:07:13.299Z,22.50
2022-10-16T03:08:16.514Z,21.65
2022-10-16T03:09:21.105Z,25.90
2022-10-16T03:10:24.035Z,23.05
2022-10-16T03:11:27.964Z,22.33
2022-10-16T03:12:31.560Z,21.90
2022-10-16T03:13:35.595Z,23.10
2022-10-16T03:14:38.587Z,23.25
2022-10-16T03:15:43.937Z,21.90
2022-10-16T03:16:46.958Z,24.40
2022-10-16T03:17:51.286Z,24.27
2022-10-16T03:18:54.207Z,36.13
2022-10-16T03:19:58.231Z,37.65
2022-10-16T03:21:01.197Z,41.65
2022-10-16T03:22:05.096Z,22.92
2022-10-16T03:23:09.333Z,19.77
2022-10-16T03:24:13.565Z,17.27
2022-10-16T03:25:16.540Z,17.45
2022-10-16T03:26:20.569Z,22.52
2022-10-16T03:27:24.110Z,22.35
2022-10-16T03:28:29.629Z,21.33
2022-10-16T03:29:33.381Z,22.58
2022-10-16T03:30:37.355Z,27.38
2022-10-16T03:31:42.437Z,28.58
2022-10-16T03:32:46.962Z,28.95
2022-10-16T03:33:49.877Z,24.08
2022-10-16T03:34:55.457Z,24.35
2022-10-16T03:35:59.007Z,25.45
2022-10-16T03:37:03.512Z,38.95
2022-10-16T03:38:06.645Z,19.15
2022-10-16T03:39:10.736Z,25.33
2022-10-16T03:40:14.158Z,28.08
2022-10-16T03:41:18.451Z,26.25
2022-10-16T03:42:21.436Z,26.95
2022-10-16T03:43:25.365Z,24.67
2022-10-16T03:44:28.384Z,31.13
2022-10-16T03:45:32.407Z,72.57
2022-10-16T03:46:35.363Z,31.33
2022-10-16T03:47:40.713Z,29.27
2022-10-16T03:48:43.666Z,25.48
2022-10-16T03:49:47.665Z,22.67
2022-10-16T03:50:51.683Z,27.92
2022-10-16T03:51:55.564Z,28.80
2022-10-16T03:52:59.034Z,24.13
2022-10-16T03:54:03.042Z,26.83
2022-10-16T03:55:06.917Z,26.48
2022-10-16T03:56:11.016Z,24.48
2022-10-16T03:57:13.896Z,24.13
2022-10-16T03:58:18.031Z,27.38
2022-10-16T03:59:21.057Z,24.25
2022-10-16T04:00:25.023Z,24.02
2022-10-16T04:01:28.003Z,69.38
2022-10-16T04:02:32.126Z,141.45
2022-10-16T04:03:36.567Z,53.85
2022-10-16T04:04:40.622Z,28.98
2022-10-16T04:05:43.884Z,24.60
2022-10-16T04:06:51.533Z,23.58
2022-10-16T04:07:54.568Z,24.48
2022-10-16T04:08:58.516Z,69.95
2022-10-16T04:10:01.596Z,27.77
2022-10-16T04:11:06.016Z,25.05
2022-10-16T04:12:10.035Z,23.23
2022-10-16T04:13:13.245Z,23.13
2022-10-16T04:14:17.276Z,31.70
2022-10-16T04:15:20.164Z,22.30
2022-10-16T04:16:24.244Z,22.48
2022-10-16T04:17:27.379Z,23.77
2022-10-16T04:18:31.717Z,39.75
2022-10-16T04:19:36.057Z,62.97
2022-10-16T04:20:40.094Z,39.53
2022-10-16T04:21:43.097Z,37.55
2022-10-16T04:22:47.286Z,19.42
2022-10-16T04:23:50.637Z,18.95
2022-10-16T04:24:54.846Z,32.95
2022-10-16T04:25:57.856Z,21.33
2022-10-16T04:27:01.866Z,52.67
2022-10-16T04:28:05.437Z,64.75
2022-10-16T04:29:09.704Z,15.88
2022-10-16T04:30:12.695Z,18.02
2022-10-16T04:31:17.235Z,19.17
2022-10-16T04:32:20.615Z,35.25
2022-10-16T04:33:26.555Z,31.02
2022-10-16T04:34:30.239Z,22.00
2022-10-16T04:35:38.236Z,29.52
2022-10-16T04:36:41.170Z,22.58
2022-10-16T04:37:45.711Z,18.75
2022-10-16T04:38:48.826Z,21.95
2022-10-16T04:39:53.495Z,31.65
2022-10-16T04:40:57.819Z,23.92
2022-10-16T04:42:01.845Z,22.13
2022-10-16T04:43:04.996Z,21.35
2022-10-16T04:44:09.356Z,21.60
2022-10-16T04:45:14.887Z,31.48
2022-10-16T04:46:21.476Z,94.93
2022-10-16T04:47:24.939Z,72.53
2022-10-16T04:48:29.216Z,24.50
2022-10-16T04:49:32.176Z,27.85
2022-10-16T04:50:37.646Z,21.80
2022-10-16T04:51:43.504Z,23.52
2022-10-16T04:52:47.487Z,27.67
2022-10-16T04:53:50.436Z,22.15
2022-10-16T04:54:55.268Z,27.50
2022-10-16T04:55:58.423Z,24.98
2022-10-16T04:57:02.409Z,21.85
2022-10-16T04:58:05.731Z,30.92
2022-10-16T04:59:09.757Z,17.35
2022-10-16T05:00:13.871Z,23.42
2022-10-16T05:01:17.864Z,21.45
2022-10-16T05:02:21.129Z,21.00
2022-10-16T05:03:25.261Z,20.33
2022-10-16T05:04:28.149Z,21.92
2022-10-16T05:05:32.156Z,22.33
2022-10-16T05:06:36.516Z,23.88
2022-10-16T05:07:40.512Z,56.42
2022-10-16T05:08:43.405Z,43.72
2022-10-16T05:09:47.406Z,56.22
2022-10-16T05:10:50.391Z,32.90
2022-10-16T05:11:54.368Z,26.13
2022-10-16T05:12:57.366Z,36.33
2022-10-16T05:14:01.437Z,37.28
2022-10-16T05:15:05.675Z,67.82
2022-10-16T05:16:09.784Z,34.30
2022-10-16T05:17:12.706Z,24.05
2022-10-16T05:18:17.395Z,27.80
2022-10-16T05:19:27.365Z,28.48
2022-10-16T05:20:32.017Z,26.98
2022-10-16T05:21:36.386Z,34.85
2022-10-16T05:22:40.738Z,29.98
2022-10-16T05:23:43.748Z,30.85
2022-10-16T05:24:47.767Z,32.15
2022-10-16T05:25:55.527Z,33.25
2022-10-16T05:26:59.600Z,36.20
2022-10-16T05:28:02.607Z,34.63
2022-10-16T05:29:06.812Z,38.17
2022-10-16T05:30:12.429Z,32.45
2022-10-16T05:31:16.656Z,37.33
2022-10-16T05:32:21.126Z,40.00
2022-10-16T05:33:25.243Z,44.90
2022-10-16T05:34:29.160Z,36.00
2022-10-16T05:35:32.116Z,37.00
2022-10-16T05:36:37.557Z,32.33
2022-10-16T05:37:40.506Z,36.10
2022-10-16T05:38:44.496Z,30.73
2022-10-16T05:39:47.419Z,34.33
2022-10-16T05:40:54.703Z,34.15
2022-10-16T05:41:57.665Z,32.72
2022-10-16T05:43:01.726Z,30.55
2022-10-16T05:44:06.561Z,31.20
2022-10-16T05:45:12.347Z,30.50
2022-10-16T05:46:15.326Z,30.50
2022-10-16T05:47:19.337Z,30.88
2022-10-16T05:48:22.246Z,28.27
2022-10-16T05:49:26.406Z,28.90
2022-10-16T05:50:29.414Z,28.80
2022-10-16T05:51:33.353Z,26.08
2022-10-16T05:52:37.896Z,28.15
2022-10-16T05:54:52.017Z,25.88
2022-10-16T05:55:55.471Z,24.80
2022-10-16T05:56:59.437Z,26.20
2022-10-16T05:58:02.336Z,24.15
2022-10-16T05:59:06.524Z,28.70
2022-10-16T06:00:10.877Z,22.15
2022-10-16T06:01:19.070Z,23.30
2022-10-16T06:02:22.179Z,24.30
2022-10-16T06:03:26.313Z,24.48
2022-10-16T06:04:29.206Z,25.67
2022-10-16T06:05:33.205Z,25.13
2022-10-16T06:06:37.546Z,26.00
2022-10-16T06:07:42.919Z,20.05
2022-10-16T06:08:46.791Z,22.95
2022-10-16T06:09:51.730Z,21.08
2022-10-16T06:11:02.466Z,22.65
2022-10-16T06:12:06.649Z,23.65
2022-10-16T06:13:09.674Z,26.05
2022-10-16T06:14:13.685Z,24.52
2022-10-16T06:15:16.614Z,25.05
2022-10-16T06:16:20.624Z,23.25
2022-10-16T06:17:23.701Z,25.15
2022-10-16T06:18:28.195Z,21.73
2022-10-16T06:19:32.725Z,26.80
2022-10-16T06:20:35.819Z,25.90
2022-10-16T06:21:39.878Z,24.52
2022-10-16T06:22:44.188Z,26.52
2022-10-16T06:23:48.555Z,22.20
2022-10-16T06:24:51.556Z,23.52
2022-10-16T06:25:55.524Z,21.08
2022-10-16T06:26:58.945Z,22.13
2022-10-16T06:28:02.868Z,19.95
2022-10-16T06:29:06.004Z,25.95
2022-10-16T06:30:11.243Z,20.08
2022-10-16T06:31:14.766Z,24.95
2022-10-16T06:32:18.727Z,25.65
2022-10-16T06:33:21.665Z,24.45
2022-10-16T06:34:25.945Z,20.75
2022-10-16T06:35:30.556Z,16.10
2022-10-16T06:36:34.712Z,21.08
2022-10-16T06:37:37.887Z,16.58
2022-10-16T06:38:43.457Z,18.90
2022-10-16T06:39:47.496Z,15.60
2022-10-16T06:40:50.456Z,15.73
2022-10-16T06:41:54.486Z,18.77
2022-10-16T06:42:57.639Z,22.00
2022-10-16T06:44:01.629Z,17.23
2022-10-16T06:45:04.996Z,15.15
2022-10-16T06:46:11.733Z,19.27
2022-10-16T06:47:14.680Z,18.48
2022-10-16T06:48:18.851Z,23.65
2022-10-16T06:49:24.186Z,20.45
2022-10-16T06:50:27.212Z,19.67
2022-10-16T06:51:33.305Z,19.00
2022-10-16T06:52:36.486Z,19.20
2022-10-16T06:54:01.943Z,17.40
2022-10-16T06:55:08.108Z,18.10
2022-10-16T06:56:11.643Z,17.70
2022-10-16T06:57:15.798Z,14.65
2022-10-16T06:58:18.767Z,13.77
2022-10-16T06:59:22.824Z,15.55
2022-10-16T07:00:25.853Z,13.77
2022-10-16T07:01:29.956Z,12.85
2022-10-16T07:02:32.950Z,14.77
2022-10-16T07:03:39.406Z,15.23
2022-10-16T07:04:43.412Z,19.52
2022-10-16T07:05:46.408Z,12.15
2022-10-16T07:06:50.396Z,13.98
2022-10-16T07:07:53.286Z,11.95
2022-10-16T07:08:58.719Z,12.77
2022-10-16T07:10:01.731Z,14.63
2022-10-16T07:11:08.139Z,13.25
2022-10-16T07:12:11.187Z,11.57
2022-10-16T07:13:15.517Z,15.82
2022-10-16T07:14:22.696Z,13.90
2022-10-16T07:15:26.874Z,15.02
2022-10-16T07:16:32.359Z,11.20
2022-10-16T07:17:35.473Z,11.95
2022-10-16T07:18:40.277Z,10.77
2022-10-16T07:19:43.267Z,19.40
2022-10-16T07:20:47.225Z,11.50
2022-10-16T07:21:51.231Z,11.85
2022-10-16T07:22:54.187Z,14.00
2022-10-16T07:24:02.505Z,14.00
2022-10-16T07:25:06.491Z,11.55
2022-10-16T07:26:11.933Z,12.52
2022-10-16T07:27:14.866Z,13.57
2022-10-16T07:28:19.018Z,10.73
2022-10-16T07:29:23.274Z,11.45
2022-10-16T07:32:08.696Z,14.25
2022-10-16T07:33:11.907Z,12.13
2022-10-16T07:34:19.271Z,13.88
2022-10-16T07:35:23.679Z,12.75
2022-10-16T07:36:29.348Z,12.18
2022-10-16T07:37:32.806Z,13.27
2022-10-16T07:38:37.256Z,14.65
2022-10-16T07:39:41.714Z,13.27
2022-10-16T07:40:45.714Z,12.10
2022-10-16T07:41:48.678Z,12.07
2022-10-16T07:42:52.679Z,12.23
2022-10-16T07:43:55.810Z,10.38
2022-10-16T07:44:59.890Z,13.10
2022-10-16T07:46:05.634Z,11.07
2022-10-16T07:47:11.205Z,13.32
2022-10-16T07:48:14.366Z,13.13
2022-10-16T07:49:18.376Z,10.30
2022-10-16T07:50:21.288Z,12.30
2022-10-16T07:51:26.896Z,10.10
2022-10-16T07:52:30.367Z,10.07
2022-10-16T07:53:35.286Z,11.40
2022-10-16T07:54:38.612Z,10.57
2022-10-16T07:55:44.230Z,9.60
2022-10-16T07:56:48.243Z,12.95
2022-10-16T07:57:51.214Z,10.55
2022-10-16T07:58:55.468Z,10.75
2022-10-16T07:59:59.565Z,11.85
2022-10-16T08:01:05.739Z,12.65
2022-10-16T08:02:10.186Z,11.63
2022-10-16T08:03:13.408Z,13.55
2022-10-16T08:04:17.447Z,10.80
2022-10-16T08:05:20.420Z,10.73
2022-10-16T08:06:27.815Z,9.23
2022-10-16T08:07:31.442Z,11.65
2022-10-16T08:08:36.505Z,11.55
2022-10-16T08:09:39.748Z,10.70
2022-10-16T08:10:45.409Z,10.18
2022-10-16T08:11:48.344Z,15.02
2022-10-16T08:12:52.328Z,10.85
2022-10-16T08:13:56.579Z,10.68
2022-10-16T08:15:01.178Z,10.38
2022-10-16T08:16:09.023Z,10.68
2022-10-16T08:17:16.650Z,9.43
2022-10-16T08:18:19.561Z,10.73
2022-10-16T08:19:23.497Z,8.82
2022-10-16T08:20:26.806Z,9.30
2022-10-16T08:21:31.208Z,10.25
2022-10-16T08:22:34.431Z,8.80
2022-10-16T08:23:38.557Z,9.32
2022-10-16T08:24:42.207Z,10.23
2022-10-16T08:25:47.750Z,7.95
2022-10-16T08:26:51.917Z,11.75
2022-10-16T08:27:54.945Z,9.38
2022-10-16T08:28:59.168Z,11.55
2022-10-16T08:30:02.531Z,9.95
2022-10-16T08:31:10.993Z,9.30
2022-10-16T08:32:15.579Z,10.48
2022-10-16T08:33:20.174Z,15.63
2022-10-16T08:34:23.137Z,10.38
2022-10-16T08:35:27.492Z,10.55
2022-10-16T08:36:31.575Z,10.13
2022-10-16T08:37:34.758Z,9.30
2022-10-16T08:38:39.745Z,10.35
2022-10-16T08:39:42.777Z,11.52
2022-10-16T08:40:51.252Z,10.75
2022-10-16T08:42:14.438Z,12.93
2022-10-16T08:43:28.409Z,9.32
2022-10-16T08:45:04.931Z,10.00
2022-10-16T08:46:28.007Z,11.25
2022-10-16T08:47:42.446Z,12.98
2022-10-16T08:48:49.420Z,9.48
2022-10-16T08:49:59.768Z,7.97
2022-10-16T08:51:03.781Z,8.27
2022-10-16T08:52:13.597Z,9.23
2022-10-16T08:53:19.987Z,9.40
2022-10-16T08:54:31.115Z,10.32
2022-10-16T08:55:39.949Z,9.75
2022-10-16T08:56:45.486Z,9.98
2022-10-16T08:57:48.347Z,9.20
2022-10-16T08:58:55.181Z,10.52
2022-10-16T09:00:08.251Z,12.38
2022-10-16T09:01:14.550Z,9.18
2022-10-16T09:02:27.710Z,10.73
2022-10-16T09:04:11.460Z,7.28
2022-10-16T09:05:31.368Z,8.73
2022-10-16T09:06:45.448Z,9.02
2022-10-16T09:07:55.667Z,8.85
2022-10-16T09:09:14.444Z,6.75
2022-10-16T09:10:26.577Z,7.50
2022-10-16T09:11:40.740Z,8.52
2022-10-16T09:12:51.736Z,8.18
2022-10-16T09:14:01.444Z,8.52
2022-10-16T09:15:14.368Z,7.68
2022-10-16T09:16:23.506Z,7.72
2022-10-16T09:17:34.239Z,10.35
2022-10-16T09:18:43.247Z,8.43
2022-10-16T09:19:49.616Z,11.07
2022-10-16T09:20:56.770Z,8.10
2022-10-16T09:22:01.489Z,7.55
2022-10-16T09:23:17.108Z,7.07
2022-10-16T09:24:26.925Z,10.75
2022-10-16T09:25:32.215Z,8.82
2022-10-16T09:26:36.097Z,7.93
2022-10-16T09:27:41.878Z,8.18
2022-10-16T09:28:48.438Z,8.85
2022-10-16T09:29:52.517Z,7.50
2022-10-16T09:30:58.928Z,9.25
2022-10-16T09:32:13.095Z,7.82
2022-10-16T09:33:18.603Z,12.65
2022-10-16T09:34:30.876Z,7.40
2022-10-16T09:35:37.951Z,9.95
2022-10-16T09:36:44.025Z,9.38
2022-10-16T09:37:49.548Z,8.02
2022-10-16T09:39:04.768Z,7.70
2022-10-16T09:40:13.355Z,9.90
2022-10-16T09:41:20.604Z,9.57
2022-10-16T09:42:25.467Z,9.52
2022-10-16T09:43:34.375Z,8.07
2022-10-16T09:45:44.777Z,7.30
2022-10-16T09:46:48.771Z,8.85
2022-10-16T09:47:54.198Z,10.30
2022-10-16T09:49:03.427Z,11.13
2022-10-16T09:50:23.276Z,8.33
2022-10-16T09:51:27.961Z,10.60
2022-10-16T09:52:32.967Z,8.57
2022-10-16T09:53:42.017Z,10.00
2022-10-16T09:54:52.666Z,10.80
2022-10-16T09:55:55.626Z,7.03
2022-10-16T09:57:07.578Z,7.10
2022-10-16T09:58:15.195Z,7.47
2022-10-16T09:59:20.945Z,8.17
2022-10-16T10:00:26.229Z,7.07
2022-10-16T10:01:37.761Z,7.30
2022-10-16T10:02:40.916Z,6.77
2022-10-16T10:03:46.249Z,9.77
2022-10-16T10:04:52.517Z,13.83
2022-10-16T10:05:59.812Z,7.00
2022-10-16T10:07:06.036Z,8.93
2022-10-16T10:08:19.085Z,12.20
2022-10-16T10:09:24.661Z,7.97
2022-10-16T10:10:29.125Z,8.30
2022-10-16T10:11:51.048Z,6.83
2022-10-16T10:12:54.406Z,8.27
2022-10-16T10:14:06.758Z,7.13
2022-10-16T10:15:14.715Z,9.23
2022-10-16T10:16:26.637Z,9.73
2022-10-16T10:17:31.229Z,7.90
2022-10-16T10:18:34.321Z,11.87
2022-10-16T10:19:40.423Z,7.17
2022-10-16T10:20:44.327Z,7.43
2022-10-16T10:21:47.795Z,11.57
2022-10-16T10:22:51.897Z,9.40
2022-10-16T10:23:58.216Z,10.10
2022-10-16T10:25:19.620Z,8.13
2022-10-16T10:26:24.749Z,8.97
2022-10-16T10:27:35.686Z,8.70
2022-10-16T10:28:57.707Z,6.97
2022-10-16T10:30:05.878Z,10.10
2022-10-16T10:31:14.504Z,11.07
2022-10-16T10:32:28.915Z,8.73
2022-10-16T10:33:45.292Z,9.07
2022-10-16T10:34:58.618Z,7.43
2022-10-16T10:36:11.421Z,8.20
2022-10-16T10:37:26.316Z,8.87
2022-10-16T10:38:37.276Z,9.47
2022-10-16T10:39:44.313Z,8.43
2022-10-16T10:40:53.869Z,9.03
2022-10-16T10:42:10.007Z,7.30
2022-10-16T10:43:22.158Z,8.50
2022-10-16T10:44:35.158Z,10.23
2022-10-16T10:45:44.310Z,10.20
2022-10-16T10:46:53.471Z,7.67
2022-10-16T10:48:13.073Z,8.43
2022-10-16T10:49:27.382Z,8.33
2022-10-16T10:50:37.408Z,6.37
2022-10-16T10:51:49.455Z,7.60
2022-10-16T10:53:01.443Z,5.77
2022-10-16T10:54:13.248Z,7.27
2022-10-16T10:55:25.051Z,6.77
2022-10-16T10:56:47.836Z,6.77
2022-10-16T10:58:03.198Z,5.77
2022-10-16T10:59:43.950Z,10.13
2022-10-16T11:00:53.716Z,9.23
2022-10-16T11:01:59.829Z,11.70
2022-10-16T11:03:12.018Z,9.53
2022-10-16T11:04:31.198Z,11.97
2022-10-16T11:05:44.976Z,9.40
2022-10-16T11:06:50.868Z,10.37
2022-10-16T11:07:59.637Z,6.47
2022-10-16T11:09:05.571Z,4.93
2022-10-16T11:10:15.058Z,5.17
2022-10-16T11:11:21.567Z,5.97
2022-10-16T11:12:29.046Z,7.30
2022-10-16T11:13:36.057Z,5.63
2022-10-16T11:14:43.486Z,5.37
2022-10-16T11:17:00.166Z,9.90
2022-10-16T11:18:08.208Z,6.10
2022-10-16T11:19:15.199Z,9.63
2022-10-16T11:20:22.148Z,7.40
2022-10-16T11:21:30.264Z,6.57
2022-10-16T11:22:38.487Z,7.00
2022-10-16T11:23:44.397Z,6.73
2022-10-16T11:24:51.601Z,7.73
2022-10-16T11:25:55.874Z,8.23
2022-10-16T11:27:03.345Z,9.63
2022-10-16T11:28:12.375Z,7.30
2022-10-16T11:29:20.657Z,5.80
2022-10-16T11:30:25.166Z,6.93
2022-10-16T11:31:33.966Z,5.57
2022-10-16T11:32:45.365Z,6.17
2022-10-16T11:33:55.347Z,4.70
2022-10-16T11:35:03.997Z,5.90
2022-10-16T11:36:14.556Z,7.43
2022-10-16T11:37:20.416Z,8.43
2022-10-16T11:38:29.739Z,5.73
2022-10-16T11:39:34.294Z,5.30
2022-10-16T11:40:42.107Z,5.67
2022-10-16T11:41:50.489Z,5.10
2022-10-16T11:42:56.461Z,5.50
2022-10-16T11:44:35.848Z,4.90
2022-10-16T11:45:43.195Z,5.23
2022-10-16T11:47:00.915Z,5.87
2022-10-16T11:48:24.189Z,7.73
2022-10-16T11:49:30.873Z,8.30
2022-10-16T11:50:37.569Z,9.33
2022-10-16T11:51:43.598Z,9.43
2022-10-16T11:52:52.008Z,7.37
2022-10-16T11:53:59.415Z,5.67
2022-10-16T11:55:07.258Z,6.13
2022-10-16T11:56:15.109Z,7.60
2022-10-16T11:57:20.998Z,5.53
2022-10-16T11:58:27.842Z,8.23
2022-10-16T11:59:34.211Z,7.30
2022-10-16T12:00:42.876Z,6.63
2022-10-16T12:01:48.618Z,6.07
2022-10-16T12:03:01.493Z,7.17
2022-10-16T12:04:16.290Z,5.70
2022-10-16T12:05:31.008Z,6.67
2022-10-16T12:06:39.029Z,6.77
2022-10-16T12:07:46.834Z,5.47
2022-10-16T12:08:50.852Z,6.30
2022-10-16T12:09:53.958Z,8.67
2022-10-16T12:11:09.320Z,5.80
2022-10-16T12:12:27.337Z,6.27
2022-10-16T12:13:35.007Z,6.33
2022-10-16T12:15:11.166Z,6.13
2022-10-16T12:16:23.653Z,7.80
2022-10-16T12:17:28.716Z,5.60
2022-10-16T12:18:32.763Z,7.13
2022-10-16T12:19:35.708Z,6.70
2022-10-16T12:20:46.972Z,10.33
2022-10-16T12:21:51.965Z,6.83
2022-10-16T12:22:58.122Z,7.37
2022-10-16T12:24:02.454Z,7.07
2022-10-16T12:25:07.454Z,6.33
2022-10-16T12:26:11.882Z,6.03
2022-10-16T12:27:25.982Z,7.43
2022-10-16T12:28:30.894Z,6.97
2022-10-16T12:29:41.893Z,6.80
2022-10-16T12:30:53.926Z,6.07
2022-10-16T12:31:59.535Z,5.93
2022-10-16T12:33:06.047Z,5.67
2022-10-16T12:34:24.368Z,6.07
2022-10-16T12:35:31.368Z,7.27
2022-10-16T12:36:37.095Z,6.20
2022-10-16T12:37:41.396Z,9.43
2022-10-16T12:38:49.859Z,6.43
2022-10-16T12:39:54.057Z,6.20
2022-10-16T12:41:01.609Z,6.67
2022-10-16T12:42:05.947Z,6.30
2022-10-16T12:43:29.824Z,6.10
2022-10-16T12:44:37.108Z,7.17
2022-10-16T12:45:41.200Z,5.40
2022-10-16T12:46:45.412Z,6.43
2022-10-16T12:47:51.168Z,5.73
2022-10-16T12:49:06.569Z,5.93
2022-10-16T12:50:33.053Z,5.90
2022-10-16T12:51:39.567Z,6.77
2022-10-16T12:52:42.610Z,6.10
2022-10-16T12:53:46.804Z,5.67
2022-10-16T12:54:50.136Z,9.20
2022-10-16T12:56:07.936Z,5.93
2022-10-16T12:57:21.478Z,6.20
2022-10-16T12:58:53.377Z,6.43
2022-10-16T13:00:03.906Z,5.80
2022-10-16T13:01:18.791Z,5.90
2022-10-16T13:02:51.706Z,7.80
2022-10-16T13:04:22.655Z,5.50
2022-10-16T13:05:44.244Z,6.73
2022-10-16T13:06:54.184Z,6.47
2022-10-16T13:08:06.217Z,6.47
2022-10-16T13:09:22.874Z,7.13
2022-10-16T13:10:31.434Z,6.27
2022-10-16T13:11:46.965Z,5.73
2022-10-16T13:13:08.558Z,6.03
2022-10-16T13:16:03.797Z,8.63
2022-10-16T13:17:13.364Z,8.53
2022-10-16T13:18:21.343Z,10.53
2022-10-16T13:19:29.763Z,7.77
2022-10-16T13:20:52.030Z,6.17
2022-10-16T13:22:03.060Z,7.33
2022-10-16T13:23:16.095Z,5.50
2022-10-16T13:24:28.847Z,6.83
2022-10-16T13:25:41.858Z,6.43
2022-10-16T13:26:52.475Z,6.50
2022-10-16T13:28:07.078Z,8.77
2022-10-16T13:29:12.182Z,6.10
2022-10-16T13:30:19.552Z,5.93
2022-10-16T13:31:25.803Z,5.37
2022-10-16T13:32:30.160Z,5.47
2022-10-16T13:33:36.211Z,10.77
2022-10-16T13:34:46.317Z,8.47
2022-10-16T13:35:52.734Z,5.80
2022-10-16T13:36:58.928Z,8.10
2022-10-16T13:38:12.978Z,6.43
2022-10-16T13:39:19.098Z,9.13
2022-10-16T13:40:25.451Z,6.23
2022-10-16T13:41:29.415Z,9.27
2022-10-16T13:42:32.490Z,6.23
2022-10-16T13:43:37.391Z,7.97
2022-10-16T13:44:43.938Z,6.97
2022-10-16T13:45:59.390Z,7.50
2022-10-16T13:47:03.068Z,10.37
2022-10-16T13:48:08.916Z,6.33
2022-10-16T13:49:17.134Z,6.53
2022-10-16T13:50:20.727Z,6.93
2022-10-16T13:51:24.801Z,6.60
2022-10-16T13:52:29.930Z,8.03
2022-10-16T13:53:35.517Z,7.10
2022-10-16T13:54:38.507Z,8.57
2022-10-16T13:55:42.689Z,5.93
2022-10-16T13:56:47.856Z,6.67
2022-10-16T13:57:55.768Z,7.60
2022-10-16T13:59:02.737Z,5.70
2022-10-16T14:00:20.577Z,6.03
2022-10-16T14:01:31.673Z,6.60
2022-10-16T14:02:37.182Z,6.10
2022-10-16T14:03:41.707Z,6.53
2022-10-16T14:04:44.698Z,6.97
2022-10-16T14:05:50.821Z,5.67
2022-10-16T14:06:54.827Z,6.23
2022-10-16T14:07:59.757Z,7.20
2022-10-16T14:09:07.420Z,8.40
2022-10-16T14:10:22.847Z,8.50
2022-10-16T14:11:27.280Z,6.90
2022-10-16T14:12:30.689Z,8.03
2022-10-16T14:13:38.849Z,8.50
2022-10-16T14:14:44.448Z,8.70
2022-10-16T14:15:50.500Z,5.93
2022-10-16T14:16:54.532Z,6.20
2022-10-16T14:17:57.835Z,6.60
2022-10-16T14:19:03.601Z,7.17
2022-10-16T14:20:08.106Z,7.63
2022-10-16T14:21:16.729Z,7.73
2022-10-16T14:22:29.182Z,6.60
2022-10-16T14:23:38.519Z,6.77
2022-10-16T14:24:41.440Z,7.10
2022-10-16T14:25:45.438Z,8.00
2022-10-16T14:26:51.177Z,6.60
2022-10-16T14:28:06.637Z,7.30
2022-10-16T14:29:14.629Z,8.40
2022-10-16T14:30:20.196Z,7.10
2022-10-16T14:31:30.077Z,7.77
2022-10-16T14:32:34.086Z,7.80
2022-10-16T14:33:37.829Z,8.30
2022-10-16T14:34:41.900Z,7.13
2022-10-16T14:35:45.799Z,9.23
2022-10-16T14:36:49.769Z,8.50
2022-10-16T14:37:54.187Z,6.97